Terminal Aerodrome Forecast
Issued by NWS Spokane, WA

Home | Current Version | Previous Version | Text Only | Print | Product List | Glossary On
Versions: 1 2 3 4 5 6 7 8 9 10 11 12 13 14 15 16 17 18 19 20 21 22 23 24 25 26 27 28 29 30 31 32 33 34 35 36 37 38 39 40 41 42 43 44 45 46 47 48 49 50
647
FTUS46 KOTX 220337 AAA
TAFGEG
TAF AMD
KGEG 220337Z 2204/2224 13004KT 5SM BR FEW002 SCT015 OVC060
      TEMPO 2204/2207 3SM -RA BR OVC015
     FM220700 18006KT 3/4SM -RA BR OVC002
     FM221300 18006KT 1/2SM FG OVC001
     FM221600 19007KT 1SM -RA BR OVC003
     FM221900 18008KT 6SM -RA BKN007 OVC025=

USA.gov is the U.S. government's official web portal to all federal, state and local government web resources and services.